Fort Chiswell, Virginia
Current Conditions -  °F | °C
As of 12:55 PM on Monday 24 Nov 2014 (Local Time) from KHLX Reporting Station
Scattered Clouds Scattered Clouds  
Wind Chill: 61°   Ceiling: Unl
Heat Index: 61°   Visibility: 10mi
Dew Point: 51°   Wind: 12mph
Humidity: 70%   Direction: 200°SSW
Pressure: 29.73"   Gusts: 22mph
Location:  36.9453°N, 80.9266°W
Report Text: KHLX 241755Z AUTO 20010G19KT 10SM SCT024 16/11 A2973 RMK AO2 T01610106 10162 20106
Loading
Personal Weather Stations






























Interactive Weather Map New forecast layout! Learn more

10-Day Weather Forecast

Advertisements
Track Severe Weather on mobile